Time;durP1;ratioP1;P1;durP2;ratioP2;P2;SDS_P1;SDS_P2;PMS_P1;PMS_P2;Temp;Humidity;BMP_temperature;BMP_pressure;BME280_temperature;BME280_humidity;BME280_pressure;Samples;Min_cycle;Max_cycle;Signal;HPM_P1;HPM_P2
2021/07/02 00:00:53;;;;;;;;;36.75;34.00;;;;;22.22;55.01;101169.22;5077479;27;48109;-52
2021/07/02 00:03:19;;;;;;;;;37.00;34.00;;;;;22.18;55.42;101170.41;5077008;27;46061;-52
2021/07/02 00:05:44;;;;;;;;;42.25;37.00;;;;;22.15;55.48;101165.19;5077695;28;45382;-52
2021/07/02 00:08:10;;;;;;;;;42.25;36.25;;;;;22.08;55.31;101169.22;5077711;27;45707;-52
2021/07/02 00:10:35;;;;;;;;;44.00;36.00;;;;;22.07;55.71;101164.78;5071321;27;48436;-52
2021/07/02 00:13:01;;;;;;;;;38.00;33.00;;;;;22.07;56.07;101169.34;5073709;27;45389;-53
2021/07/02 00:15:26;;;;;;;;;41.25;36.00;;;;;22.01;56.09;101171.44;5077926;27;45818;-49
2021/07/02 00:17:51;;;;;;;;;38.00;34.00;;;;;22.00;56.11;101166.13;5065598;27;45553;-49
2021/07/02 00:20:17;;;;;;;;;47.25;39.25;;;;;22.00;56.23;101163.41;5075086;27;48394;-51
2021/07/02 00:22:42;;;;;;;;;41.50;35.25;;;;;21.97;55.95;101166.28;5068971;27;45506;-49
2021/07/02 00:25:09;;;;;;;;;43.50;36.50;;;;;21.94;56.23;101164.66;5065043;28;45675;-51
2021/07/02 00:27:34;;;;;;;;;42.50;36.25;;;;;21.92;55.91;101163.00;5072515;27;45383;-52
2021/07/02 00:30:00;;;;;;;;;46.00;38.25;;;;;21.87;56.36;101168.72;5065608;27;47779;-53
2021/07/02 00:32:25;;;;;;;;;43.75;38.25;;;;;21.82;56.45;101161.84;5077288;27;45712;-52
2021/07/02 00:34:51;;;;;;;;;40.75;35.00;;;;;21.79;56.65;101167.44;5071284;27;45648;-50
2021/07/02 00:37:16;;;;;;;;;42.25;37.50;;;;;21.77;57.17;101166.66;5064424;28;45824;-51
2021/07/02 00:39:42;;;;;;;;;41.50;36.50;;;;;21.73;56.77;101166.00;5065934;27;48050;-51
2021/07/02 00:42:07;;;;;;;;;41.50;35.75;;;;;21.70;56.62;101169.72;5072697;27;45494;-52
2021/07/02 00:44:37;;;;;;;;;41.75;34.75;;;;;21.66;57.34;101170.88;5092943;27;45378;-51
2021/07/02 00:47:03;;;;;;;;;48.25;39.75;;;;;21.65;56.96;101174.56;5074055;27;45459;-51
2021/07/02 00:49:28;;;;;;;;;42.75;37.00;;;;;21.65;56.92;101179.09;5077016;27;45602;-50
2021/07/02 00:51:54;;;;;;;;;39.00;34.00;;;;;21.61;56.85;101180.25;5076832;27;45576;-53
2021/07/02 00:54:19;;;;;;;;;39.75;36.00;;;;;21.58;57.72;101175.00;5074979;27;45322;-51
2021/07/02 00:56:45;;;;;;;;;44.50;38.50;;;;;21.58;57.65;101177.69;5075151;27;45303;-52
2021/07/02 00:59:10;;;;;;;;;39.75;36.75;;;;;21.57;57.59;101181.38;5074824;27;46065;-52
2021/07/02 01:01:36;;;;;;;;;42.50;36.50;;;;;21.53;57.64;101172.59;5076090;27;45522;-51
2021/07/02 01:04:01;;;;;;;;;48.00;38.50;;;;;21.50;57.96;101178.19;5073286;27;45762;-53
2021/07/02 01:06:27;;;;;;;;;45.00;38.50;;;;;21.51;57.56;101168.25;5074554;27;45511;-50
2021/07/02 01:08:52;;;;;;;;;44.75;37.25;;;;;21.51;57.39;101166.41;5071793;28;47039;-52
2021/07/02 01:11:18;;;;;;;;;43.25;37.75;;;;;21.49;58.10;101165.66;5075276;27;45484;-50
2021/07/02 01:13:44;;;;;;;;;45.25;38.00;;;;;21.43;58.32;101160.59;5076017;27;45461;-53
2021/07/02 01:16:09;;;;;;;;;46.75;38.00;;;;;21.37;58.60;101163.69;5077030;27;45781;-50
2021/07/02 01:18:39;;;;;;;;;47.75;38.75;;;;;21.31;58.33;101166.72;5076383;27;46946;-52
2021/07/02 01:21:04;;;;;;;;;44.00;37.50;;;;;21.26;58.78;101161.59;5069816;27;45947;-51
2021/07/02 01:23:31;;;;;;;;;48.25;40.25;;;;;21.23;58.79;101163.59;5075520;27;45476;-49
2021/07/02 01:25:58;;;;;;;;;37.75;34.25;;;;;21.20;58.87;101166.44;5087980;27;45512;-52
2021/07/02 01:28:24;;;;;;;;;48.25;40.25;;;;;21.14;59.19;101165.00;5086701;27;48304;-51
2021/07/02 01:30:49;;;;;;;;;43.00;36.50;;;;;21.10;58.85;101153.53;5067983;27;45429;-51
2021/07/02 01:33:16;;;;;;;;;46.25;37.75;;;;;21.06;59.00;101161.88;5075367;27;45352;-53
2021/07/02 01:35:41;;;;;;;;;48.50;40.50;;;;;21.04;59.44;101159.25;5078149;27;45471;-53
2021/07/02 01:38:07;;;;;;;;;44.00;38.75;;;;;21.00;59.19;101159.53;5054602;28;47161;-50
2021/07/02 01:40:33;;;;;;;;;48.25;40.25;;;;;20.97;59.23;101151.63;5073568;27;45633;-52
2021/07/02 01:42:59;;;;;;;;;48.00;39.00;;;;;20.94;59.69;101157.19;5075208;27;45532;-53
2021/07/02 01:45:25;;;;;;;;;47.75;39.50;;;;;20.90;59.43;101143.00;5080468;27;45590;-51
2021/07/02 01:47:51;;;;;;;;;45.75;37.00;;;;;20.86;59.65;101153.09;5083702;27;47206;-52
2021/07/02 01:50:16;;;;;;;;;50.50;43.00;;;;;20.87;59.94;101153.97;5079926;27;45219;-53
2021/07/02 01:52:42;;;;;;;;;49.00;38.75;;;;;20.86;59.90;101155.81;5061154;28;45619;-52
2021/07/02 01:55:08;;;;;;;;;48.25;38.75;;;;;20.85;60.11;101151.38;5091340;27;45491;-53
2021/07/02 01:57:33;;;;;;;;;45.50;39.50;;;;;20.86;59.70;101152.25;5074545;27;47301;-52
2021/07/02 01:59:59;;;;;;;;;48.50;41.00;;;;;20.84;59.78;101152.34;5079685;27;45386;-51
2021/07/02 02:02:24;;;;;;;;;45.00;39.50;;;;;20.86;60.17;101154.94;5079679;27;45345;-53
2021/07/02 02:04:50;;;;;;;;;48.50;41.25;;;;;20.86;60.13;101150.41;5072453;27;45692;-50
2021/07/02 02:07:16;;;;;;;;;50.00;42.75;;;;;20.86;60.38;101144.16;5079683;27;48394;-53
2021/07/02 02:09:41;;;;;;;;;46.25;39.75;;;;;20.89;60.18;101146.66;5078312;27;45854;-52
2021/07/02 02:12:08;;;;;;;;;48.25;41.25;;;;;20.93;60.02;101150.03;5073796;27;45417;-53
2021/07/02 02:14:34;;;;;;;;;45.75;40.25;;;;;20.97;59.93;101143.53;5077441;27;45336;-54
2021/07/02 02:17:00;;;;;;;;;43.75;37.50;;;;;21.02;59.98;101146.81;5074556;27;48050;-52
2021/07/02 02:19:25;;;;;;;;;43.25;37.75;;;;;21.06;60.11;101142.97;5074852;27;45361;-51
2021/07/02 02:21:52;;;;;;;;;47.75;39.75;;;;;21.07;60.16;101145.56;5076821;27;45709;-52
2021/07/02 02:24:18;;;;;;;;;43.00;38.25;;;;;21.06;59.56;101142.97;5074604;27;45389;-52
2021/07/02 02:26:44;;;;;;;;;48.50;40.75;;;;;21.03;59.52;101148.56;5081348;27;45438;-51
2021/07/02 02:29:10;;;;;;;;;48.25;39.50;;;;;20.98;60.42;101142.56;5059857;27;45448;-50
2021/07/02 02:31:36;;;;;;;;;47.50;39.00;;;;;20.94;59.82;101141.00;5072284;27;45351;-53
2021/07/02 02:34:01;;;;;;;;;56.25;43.00;;;;;20.91;60.23;101139.34;5075254;27;45521;-52
2021/07/02 02:36:27;;;;;;;;;47.75;40.75;;;;;20.88;59.98;101139.53;5070597;27;47736;-52
2021/07/02 02:38:53;;;;;;;;;51.50;42.75;;;;;20.84;60.32;101129.88;5070676;27;45600;-53
2021/07/02 02:41:19;;;;;;;;;47.75;41.00;;;;;20.82;60.61;101138.03;5076644;27;45404;-54
2021/07/02 02:43:44;;;;;;;;;49.00;41.25;;;;;20.80;60.70;101136.38;5079479;27;45622;-52
2021/07/02 02:46:10;;;;;;;;;51.75;43.25;;;;;20.79;60.58;101140.91;5068605;27;47069;-50
2021/07/02 02:48:35;;;;;;;;;54.25;43.00;;;;;20.79;60.50;101138.22;5090620;27;45409;-52
2021/07/02 02:51:01;;;;;;;;;46.50;39.50;;;;;20.80;60.67;101125.59;5094888;27;45642;-49
2021/07/02 02:53:26;;;;;;;;;45.25;39.50;;;;;20.77;60.80;101129.34;5064693;27;45607;-51
2021/07/02 02:55:52;;;;;;;;;49.50;42.00;;;;;20.75;61.08;101136.66;5084270;27;46967;-53
2021/07/02 02:58:17;;;;;;;;;46.25;39.00;;;;;20.75;60.51;101133.97;5061550;27;45734;-52
2021/07/02 03:00:43;;;;;;;;;46.50;39.50;;;;;20.77;61.20;101133.88;5072491;27;45396;-53
2021/07/02 03:03:09;;;;;;;;;48.25;40.50;;;;;20.80;60.96;101131.00;5075211;27;45349;-50
2021/07/02 03:05:35;;;;;;;;;50.25;41.75;;;;;20.84;60.74;101133.44;5073423;27;46835;-51
2021/07/02 03:08:00;;;;;;;;;48.75;39.25;;;;;20.86;60.66;101141.44;5074610;27;46233;-52
2021/07/02 03:10:26;;;;;;;;;51.00;42.00;;;;;20.86;60.42;101133.34;5067827;27;45402;-49
2021/07/02 03:12:51;;;;;;;;;46.00;39.75;;;;;20.84;61.13;101129.88;5075627;27;45598;-52
2021/07/02 03:15:17;;;;;;;;;49.50;41.25;;;;;20.81;60.65;101133.59;5077898;27;47491;-49
2021/07/02 03:17:43;;;;;;;;;47.00;39.75;;;;;20.78;60.64;101125.69;5078483;27;45395;-52
2021/07/02 03:20:11;;;;;;;;;45.00;39.75;;;;;20.74;61.22;101123.28;5072753;27;45347;-51
2021/07/02 03:22:37;;;;;;;;;47.75;41.25;;;;;20.67;61.28;101125.44;5072551;27;45384;-51
2021/07/02 03:25:05;;;;;;;;;49.00;40.00;;;;;20.65;61.28;101126.50;5068181;27;48345;-50
2021/07/02 03:27:31;;;;;;;;;50.00;42.50;;;;;20.61;61.21;101128.50;5073255;27;45322;-50
2021/07/02 03:29:57;;;;;;;;;55.75;43.00;;;;;20.54;61.09;101125.25;5069895;27;45471;-49
2021/07/02 03:32:22;;;;;;;;;49.50;41.00;;;;;20.48;61.70;101132.84;5072344;27;45985;-50
2021/07/02 03:34:48;;;;;;;;;48.25;39.25;;;;;20.42;62.04;101123.25;5070235;27;48164;-52
2021/07/02 03:37:16;;;;;;;;;50.25;41.00;;;;;20.41;61.61;101121.50;5076942;27;45516;-50
2021/07/02 03:39:42;;;;;;;;;47.00;39.50;;;;;20.43;62.12;101119.59;5074156;27;45677;-50
2021/07/02 03:42:08;;;;;;;;;46.50;38.25;;;;;20.44;62.17;101120.47;5072253;27;45431;-52
2021/07/02 03:44:34;;;;;;;;;49.25;41.25;;;;;20.38;61.96;101124.38;5076798;27;47429;-53
2021/07/02 03:46:59;;;;;;;;;50.00;42.25;;;;;20.37;62.18;101124.47;5076743;27;46007;-52
2021/07/02 03:49:26;;;;;;;;;49.50;39.75;;;;;20.39;62.48;101119.84;5078920;27;45414;-52
2021/07/02 03:51:52;;;;;;;;;47.75;41.50;;;;;20.40;62.48;101121.59;5071563;27;45614;-52
2021/07/02 03:54:17;;;;;;;;;44.75;37.75;;;;;20.38;62.19;101129.75;5073872;27;47308;-51
2021/07/02 03:59:28;;;;;;;;;47.75;41.25;;;;;20.35;62.11;101119.16;5064082;27;45706;-52
2021/07/02 04:01:53;;;;;;;;;47.75;40.50;;;;;20.33;62.28;101130.94;5071389;27;45371;-53
2021/07/02 04:04:19;;;;;;;;;47.00;40.25;;;;;20.30;62.49;101134.69;5072794;27;47339;-53
2021/07/02 04:06:44;;;;;;;;;47.00;38.75;;;;;20.29;62.51;101135.66;5069284;27;45517;-52
2021/07/02 04:09:10;;;;;;;;;46.50;38.50;;;;;20.27;62.38;101130.34;5089423;27;45506;-49
2021/07/02 04:11:35;;;;;;;;;51.25;42.25;;;;;20.26;62.25;101139.38;5075580;27;45496;-51
2021/07/02 04:14:01;;;;;;;;;50.00;41.00;;;;;20.26;62.72;101139.38;5071643;27;47294;-53
2021/07/02 04:16:26;;;;;;;;;48.50;40.25;;;;;20.29;62.79;101138.34;5074791;27;46170;-52
2021/07/02 04:18:51;;;;;;;;;48.50;41.50;;;;;20.33;62.61;101139.03;5062529;27;45575;-53
2021/07/02 04:21:17;;;;;;;;;47.00;40.00;;;;;20.36;62.48;101137.06;5066304;27;45296;-53
2021/07/02 04:23:43;;;;;;;;;46.00;39.50;;;;;20.38;62.63;101137.84;5070889;27;47147;-51
2021/07/02 04:26:08;;;;;;;;;43.50;38.00;;;;;20.41;62.49;101142.19;5064595;27;45290;-54
2021/07/02 04:28:33;;;;;;;;;48.00;40.75;;;;;20.44;62.22;101147.44;5067563;27;45333;-52
2021/07/02 04:30:59;;;;;;;;;46.50;38.25;;;;;20.46;62.34;101150.94;5064240;27;45949;-52
2021/07/02 04:33:24;;;;;;;;;47.00;38.25;;;;;20.46;62.45;101145.56;5072626;27;47561;-52
2021/07/02 04:35:50;;;;;;;;;45.00;37.00;;;;;20.50;62.17;101153.38;5066845;27;45695;-52
2021/07/02 04:38:15;;;;;;;;;44.50;38.00;;;;;20.55;61.99;101153.97;5063141;28;45436;-51
2021/07/02 04:40:41;;;;;;;;;44.50;37.75;;;;;20.61;62.36;101149.19;5076673;27;45424;-52
2021/07/02 04:43:06;;;;;;;;;46.50;38.00;;;;;20.68;62.50;101159.53;5075007;27;48283;-48
2021/07/02 04:45:32;;;;;;;;;42.75;37.50;;;;;20.74;62.14;101156.50;5071991;28;45578;-51
2021/07/02 04:47:58;;;;;;;;;45.75;38.50;;;;;20.79;61.66;101156.22;5077382;27;45636;-51
2021/07/02 04:50:24;;;;;;;;;50.50;41.50;;;;;20.84;61.73;101157.72;5077654;27;45487;-50
2021/07/02 04:52:49;;;;;;;;;50.75;41.50;;;;;20.84;61.33;101164.97;5074278;27;48308;-50
2021/07/02 04:55:15;;;;;;;;;49.25;39.75;;;;;20.79;62.07;101161.63;5074482;27;45761;-54
2021/07/02 04:57:40;;;;;;;;;49.00;41.50;;;;;20.81;62.20;101155.19;5090991;27;45406;-52
2021/07/02 05:00:07;;;;;;;;;49.50;41.00;;;;;20.86;61.66;101161.22;5072998;27;45292;-54
2021/07/02 05:02:33;;;;;;;;;44.25;38.50;;;;;20.93;62.14;101159.00;5084131;27;47326;-53
2021/07/02 05:04:58;;;;;;;;;49.25;39.50;;;;;21.01;61.74;101155.88;5073490;27;45722;-53
2021/07/02 05:07:24;;;;;;;;;50.75;41.00;;;;;21.09;61.65;101161.72;5071667;27;45569;-52
2021/07/02 05:09:50;;;;;;;;;49.25;40.75;;;;;21.20;61.10;101161.91;5074231;27;45353;-53
2021/07/02 05:12:16;;;;;;;;;45.50;37.50;;;;;21.28;61.35;101162.38;5096263;27;47938;-53
2021/07/02 05:14:41;;;;;;;;;48.50;40.25;;;;;21.35;61.19;101161.06;5080538;27;45340;-53
2021/07/02 05:17:07;;;;;;;;;50.25;42.50;;;;;21.44;60.60;101159.63;5075988;27;45741;-53
2021/07/02 05:19:32;;;;;;;;;48.75;40.00;;;;;21.53;60.44;101164.50;5070315;27;45823;-50
2021/07/02 05:21:58;;;;;;;;;47.50;40.25;;;;;21.60;60.46;101151.50;5074348;27;47970;-54
2021/07/02 05:24:23;;;;;;;;;49.25;39.75;;;;;21.67;60.32;101158.25;5080263;27;45414;-53
2021/07/02 05:26:49;;;;;;;;;49.00;41.25;;;;;21.71;59.82;101152.56;5073159;27;45436;-51
2021/07/02 05:29:14;;;;;;;;;51.75;42.50;;;;;21.73;59.74;101158.75;5067193;27;45501;-52
2021/07/02 05:31:40;;;;;;;;;47.75;40.50;;;;;21.72;59.51;101159.72;5056847;28;47130;-53
2021/07/02 05:34:05;;;;;;;;;47.00;39.25;;;;;21.68;59.50;101162.69;5078013;27;45556;-53
2021/07/02 05:36:30;;;;;;;;;51.00;41.25;;;;;21.67;59.43;101164.53;5077300;27;45621;-53
2021/07/02 05:38:56;;;;;;;;;53.00;42.75;;;;;21.67;59.86;101160.94;5071997;27;45404;-53
2021/07/02 05:41:22;;;;;;;;;45.50;39.25;;;;;21.69;60.05;101159.88;5074896;27;46683;-52
2021/07/02 05:43:49;;;;;;;;;49.25;41.25;;;;;21.71;59.50;101155.25;5080676;27;45314;-53
2021/07/02 05:46:14;;;;;;;;;48.50;41.50;;;;;21.76;59.72;101159.53;5077121;27;45470;-54
2021/07/02 05:48:40;;;;;;;;;50.75;42.75;;;;;21.80;59.70;101159.25;5082226;27;45280;-49
2021/07/02 05:51:05;;;;;;;;;50.50;42.00;;;;;21.85;59.43;101149.03;5074412;27;48482;-53
2021/07/02 05:53:31;;;;;;;;;47.00;40.25;;;;;21.90;59.77;101154.16;5076567;27;45388;-53
2021/07/02 05:55:57;;;;;;;;;49.50;40.50;;;;;21.94;59.73;101161.09;5061843;27;45477;-51
2021/07/02 05:58:22;;;;;;;;;53.25;44.25;;;;;21.92;59.48;101161.19;5075218;27;45522;-53
2021/07/02 06:00:48;;;;;;;;;43.25;36.75;;;;;21.91;59.22;101159.44;5078348;27;48002;-49
2021/07/02 06:03:13;;;;;;;;;47.00;40.00;;;;;21.90;59.21;101167.66;5079072;27;45389;-52
2021/07/02 06:05:39;;;;;;;;;62.25;50.25;;;;;21.91;59.52;101166.69;5063392;27;45597;-52
2021/07/02 06:08:05;;;;;;;;;54.75;44.00;;;;;21.91;59.43;101159.44;5076525;27;45598;-53
2021/07/02 06:10:31;;;;;;;;;52.75;43.75;;;;;21.97;59.30;101160.88;5078840;27;48332;-56
2021/07/02 06:12:57;;;;;;;;;54.75;43.50;;;;;22.00;59.35;101167.00;5073756;27;46086;-52
2021/07/02 06:15:23;;;;;;;;;51.00;42.00;;;;;22.01;58.85;101166.03;5078502;27;45460;-52
2021/07/02 06:17:50;;;;;;;;;51.25;43.50;;;;;22.03;58.77;101165.94;5079295;27;45586;-52
2021/07/02 06:20:17;;;;;;;;;53.25;43.75;;;;;22.04;58.76;101162.25;5068544;27;45673;-54
2021/07/02 06:22:44;;;;;;;;;49.00;41.00;;;;;22.04;59.24;101154.16;5066754;28;45941;-50
2021/07/02 06:25:12;;;;;;;;;51.75;40.75;;;;;22.04;59.32;101154.16;5075882;27;45396;-54
2021/07/02 06:27:38;;;;;;;;;49.00;40.75;;;;;22.06;59.32;101164.91;5080393;27;45379;-55
2021/07/02 06:30:05;;;;;;;;;63.25;49.25;;;;;22.08;59.11;101158.41;5082034;27;48420;-54
2021/07/02 06:32:32;;;;;;;;;57.50;47.25;;;;;22.06;59.04;101157.66;5067194;27;45447;-51
2021/07/02 06:34:57;;;;;;;;;49.50;40.50;;;;;22.04;58.80;101149.63;5077468;27;45392;-54
2021/07/02 06:37:23;;;;;;;;;50.25;42.75;;;;;22.06;58.76;101149.53;5074483;27;45528;-52
2021/07/02 06:39:48;;;;;;;;;50.50;42.25;;;;;22.09;59.20;101156.59;5076391;27;48090;-54
2021/07/02 06:42:14;;;;;;;;;53.25;43.50;;;;;22.12;58.97;101153.72;5078857;27;45650;-54
2021/07/02 06:44:39;;;;;;;;;55.00;43.25;;;;;22.12;58.82;101160.00;5075277;27;45358;-53
2021/07/02 06:47:06;;;;;;;;;51.00;42.75;;;;;22.14;58.67;101159.88;5085275;27;45348;-51
2021/07/02 06:49:31;;;;;;;;;55.00;44.25;;;;;22.16;59.21;101158.81;5091315;27;47430;-54
2021/07/02 06:51:57;;;;;;;;;52.25;44.50;;;;;22.19;58.87;101161.31;5074090;27;45410;-53
2021/07/02 06:54:22;;;;;;;;;53.00;43.50;;;;;22.22;58.89;101155.72;5075114;27;45753;-51
2021/07/02 06:57:00;;;;;;;;;54.00;44.75;;;;;22.23;58.55;101159.28;5094127;27;45628;-50
2021/07/02 06:59:27;;;;;;;;;51.00;42.00;;;;;22.23;58.55;101164.69;5071835;27;46309;-53
2021/07/02 07:01:54;;;;;;;;;52.50;44.25;;;;;22.22;58.45;101158.41;5070670;27;45529;-53
2021/07/02 07:04:20;;;;;;;;;52.50;44.50;;;;;22.23;58.54;101171.00;5078002;27;45709;-54
2021/07/02 07:06:45;;;;;;;;;49.25;42.50;;;;;22.25;58.45;101162.78;5071143;27;45642;-53
2021/07/02 07:09:11;;;;;;;;;54.50;45.25;;;;;22.27;58.90;101164.41;5075524;27;47074;-53
2021/07/02 07:11:36;;;;;;;;;53.75;43.50;;;;;22.31;58.30;101175.91;5087990;27;45533;-54
2021/07/02 07:14:02;;;;;;;;;54.75;45.00;;;;;22.35;58.60;101177.44;5070446;28;45590;-53
2021/07/02 07:16:27;;;;;;;;;55.00;45.50;;;;;22.39;58.71;101175.44;5051171;28;45656;-54
2021/07/02 07:18:53;;;;;;;;;53.75;43.25;;;;;22.41;58.62;101173.50;5091159;27;47122;-55
2021/07/02 07:21:18;;;;;;;;;53.75;45.00;;;;;22.44;58.31;101174.16;5069562;27;45607;-54
2021/07/02 07:23:44;;;;;;;;;50.75;42.25;;;;;22.47;58.22;101171.25;5073805;27;45397;-54
2021/07/02 07:26:09;;;;;;;;;54.00;45.25;;;;;22.49;57.85;101172.03;5078498;27;45828;-55
2021/07/02 07:28:35;;;;;;;;;51.00;42.75;;;;;22.51;58.33;101167.41;5068679;27;48429;-51
2021/07/02 07:31:00;;;;;;;;;51.25;42.75;;;;;22.52;58.34;101165.56;5077734;27;45938;-52
2021/07/02 07:33:27;;;;;;;;;51.00;43.75;;;;;22.55;58.35;101166.22;5074799;27;45463;-53
2021/07/02 07:35:52;;;;;;;;;52.75;43.00;;;;;22.59;58.20;101161.47;5075187;27;45602;-54
2021/07/02 07:38:18;;;;;;;;;60.00;47.75;;;;;22.61;58.23;101170.34;5093393;27;46143;-53
2021/07/02 07:40:44;;;;;;;;;58.00;48.00;;;;;22.64;57.98;101172.88;5092885;27;45868;-52
2021/07/02 07:43:10;;;;;;;;;51.00;42.50;;;;;22.65;57.66;101171.03;5077318;27;45370;-53
2021/07/02 07:45:36;;;;;;;;;56.25;45.00;;;;;22.67;57.96;101169.09;5076964;27;45779;-51
2021/07/02 07:48:01;;;;;;;;;57.00;45.50;;;;;22.68;57.90;101170.84;5076942;27;48202;-50
2021/07/02 07:50:30;;;;;;;;;57.00;46.50;;;;;22.69;57.63;101167.16;5076947;27;45341;-52
2021/07/02 07:52:59;;;;;;;;;54.50;44.75;;;;;22.73;57.62;101182.22;5075539;27;45380;-51
2021/07/02 07:55:29;;;;;;;;;55.00;46.25;;;;;22.75;57.87;101183.00;5068276;28;45389;-52
2021/07/02 07:57:56;;;;;;;;;58.00;48.50;;;;;22.79;57.68;101187.25;5071244;27;47689;-54
2021/07/02 08:00:23;;;;;;;;;53.25;44.50;;;;;22.81;57.69;101182.59;5092560;27;45502;-53
2021/07/02 08:02:49;;;;;;;;;53.25;45.00;;;;;22.85;57.59;101181.44;5078657;27;45578;-54
2021/07/02 08:05:15;;;;;;;;;53.00;44.75;;;;;22.86;57.62;101185.91;5072777;27;45396;-50
2021/07/02 08:07:43;;;;;;;;;56.00;45.00;;;;;22.91;57.51;101181.06;5075752;28;45487;-50
2021/07/02 08:10:14;;;;;;;;;53.00;44.00;;;;;22.95;57.53;101185.28;5071715;27;46210;-51
2021/07/02 08:12:41;;;;;;;;;53.00;44.00;;;;;23.00;57.33;101179.59;5070792;27;45472;-53
2021/07/02 08:15:08;;;;;;;;;51.75;43.25;;;;;23.01;57.16;101182.22;5078127;27;45877;-51
2021/07/02 08:17:35;;;;;;;;;54.75;45.25;;;;;23.03;57.23;101180.25;5069936;27;47353;-51
2021/07/02 08:20:00;;;;;;;;;51.75;43.75;;;;;23.06;56.86;101180.03;5065129;27;45391;-53
2021/07/02 08:22:27;;;;;;;;;53.00;44.25;;;;;23.10;57.34;101186.97;5065780;27;45296;-50
2021/07/02 08:24:53;;;;;;;;;50.25;42.00;;;;;23.15;56.81;101189.41;5075384;27;45529;-52
2021/07/02 08:27:19;;;;;;;;;52.00;43.00;;;;;23.19;56.73;101183.66;5093567;27;45851;-50
2021/07/02 08:29:45;;;;;;;;;54.50;44.00;;;;;23.25;56.95;101186.94;5082480;27;45693;-51
2021/07/02 08:32:11;;;;;;;;;56.50;46.00;;;;;23.29;56.82;101186.63;5076629;27;45394;-50
2021/07/02 08:34:36;;;;;;;;;54.75;44.00;;;;;23.32;57.16;101194.53;5071044;27;46013;-52
2021/07/02 08:37:02;;;;;;;;;52.50;43.25;;;;;23.36;56.52;101190.66;5083196;27;45492;-50
2021/07/02 08:39:28;;;;;;;;;52.75;43.50;;;;;23.38;56.80;101191.44;5077932;27;45257;-53
2021/07/02 08:41:53;;;;;;;;;50.75;42.00;;;;;23.40;56.42;101189.50;5067872;27;45331;-50
2021/07/02 08:44:19;;;;;;;;;53.00;43.50;;;;;23.43;56.25;101189.28;5078465;27;46229;-52
2021/07/02 08:46:46;;;;;;;;;55.25;45.00;;;;;23.46;56.69;101185.47;5088105;27;47254;-52
2021/07/02 08:49:11;;;;;;;;;53.75;44.25;;;;;23.49;55.94;101185.28;5063371;27;45344;-51
2021/07/02 08:51:37;;;;;;;;;49.50;40.00;;;;;23.53;55.80;101183.25;5069792;27;45424;-51
2021/07/02 08:54:03;;;;;;;;;42.25;36.25;;;;;23.54;55.26;101176.84;5076638;27;45354;-50
2021/07/02 08:56:28;;;;;;;;;43.50;37.00;;;;;23.55;55.27;101171.31;5076551;28;47424;-53
2021/07/02 08:58:54;;;;;;;;;36.75;32.25;;;;;23.56;54.53;101172.19;5079669;27;45427;-54
2021/07/02 09:01:42;;;;;;;;;33.75;32.25;;;;;23.57;54.42;101169.38;5086138;27;45366;-52
2021/07/02 09:04:21;;;;;;;;;40.00;36.25;;;;;23.60;54.61;101171.91;5078668;27;45584;-53
2021/07/02 09:07:03;;;;;;;;;41.75;35.75;;;;;23.63;53.75;101169.00;5070183;27;47879;-53
2021/07/02 09:10:01;;;;;;;;;38.00;34.25;;;;;23.67;54.28;101158.81;5077983;27;46038;-53
2021/07/02 09:12:31;;;;;;;;;39.75;34.75;;;;;23.71;53.88;101163.88;5020720;27;45595;-51
2021/07/02 09:15:07;;;;;;;;;41.50;35.25;;;;;23.78;54.13;101161.63;5080570;27;45686;-54
2021/07/02 09:17:35;;;;;;;;;41.00;34.75;;;;;23.90;53.73;101163.50;5076534;27;48215;-52
2021/07/02 09:20:16;;;;;;;;;42.00;36.25;;;;;24.01;53.14;101169.03;5080879;27;45495;-52
2021/07/02 09:22:44;;;;;;;;;39.00;34.75;;;;;24.12;52.85;101168.25;5072975;27;45364;-51
2021/07/02 09:25:18;;;;;;;;;37.75;34.75;;;;;24.17;52.69;101157.09;5096463;27;45436;-50
2021/07/02 09:27:44;;;;;;;;;38.00;33.50;;;;;24.23;52.10;101151.19;5077229;27;47404;-47
2021/07/02 09:30:13;;;;;;;;;36.00;32.75;;;;;24.26;52.58;101149.13;5080446;27;45812;-52
2021/07/02 09:32:41;;;;;;;;;35.00;32.00;;;;;24.34;52.25;101154.91;5085740;27;45397;-51
2021/07/02 09:35:08;;;;;;;;;31.25;30.25;;;;;24.42;51.68;101151.66;5071941;28;45814;-51
2021/07/02 09:37:43;;;;;;;;;36.75;31.25;;;;;24.46;51.82;101150.44;5080445;27;47556;-48
2021/07/02 09:40:19;;;;;;;;;34.50;31.50;;;;;24.45;51.13;101147.84;5069345;27;45647;-50
2021/07/02 09:42:46;;;;;;;;;34.00;31.25;;;;;24.40;51.21;101148.19;5072156;27;45498;-50
2021/07/02 09:45:16;;;;;;;;;31.75;30.00;;;;;24.34;51.06;101145.91;5076996;27;45563;-49
2021/07/02 09:47:46;;;;;;;;;29.75;28.25;;;;;24.32;51.10;101139.72;5070318;27;47130;-51
2021/07/02 09:50:18;;;;;;;;;32.75;30.50;;;;;24.31;51.15;101138.00;5069731;27;45623;-47
2021/07/02 09:52:53;;;;;;;;;36.00;32.25;;;;;24.34;50.89;101133.22;5079072;27;45325;-47
2021/07/02 09:55:31;;;;;;;;;36.50;32.50;;;;;24.38;50.68;101144.69;5077733;27;45585;-48
2021/07/02 09:58:14;;;;;;;;;33.50;32.00;;;;;24.45;51.22;101153.28;5076129;27;47717;-47
2021/07/02 10:00:44;;;;;;;;;37.25;33.00;;;;;24.52;50.92;101143.69;5069046;27;45636;-47
2021/07/02 10:03:10;;;;;;;;;33.00;29.75;;;;;24.57;50.77;101144.25;5069465;27;45461;-49
2021/07/02 10:05:43;;;;;;;;;31.75;30.50;;;;;24.65;50.54;101140.00;5075606;27;45449;-48
2021/07/02 10:08:09;;;;;;;;;29.00;28.75;;;;;24.71;50.26;101137.78;5078334;27;45510;-50
2021/07/02 10:10:34;;;;;;;;;30.25;29.25;;;;;24.78;49.80;101139.09;5080741;27;45463;-50
2021/07/02 10:13:00;;;;;;;;;27.75;27.50;;;;;24.83;50.12;101136.88;5077356;27;45512;-49
2021/07/02 10:15:27;;;;;;;;;28.75;27.75;;;;;24.88;49.95;101129.25;5075527;27;45751;-52
2021/07/02 10:17:58;;;;;;;;;25.25;24.50;;;;;24.90;49.71;101135.41;5076700;27;46407;-50
2021/07/02 10:20:25;;;;;;;;;17.75;16.75;;;;;24.90;48.74;101130.88;5067036;27;45731;-50
2021/07/02 10:22:58;;;;;;;;;17.00;16.75;;;;;24.94;48.35;101128.78;5090311;27;45369;-51
2021/07/02 10:25:29;;;;;;;;;17.00;17.00;;;;;24.97;48.55;101133.13;5075171;27;45614;-50
2021/07/02 10:27:55;;;;;;;;;14.00;14.00;;;;;25.01;48.51;101134.66;5076735;27;47458;-49
2021/07/02 10:30:21;;;;;;;;;18.50;18.50;;;;;25.06;48.63;101140.63;5080574;27;45976;-51
2021/07/02 10:32:50;;;;;;;;;17.75;17.75;;;;;25.12;48.39;101141.00;5074258;27;45511;-48
2021/07/02 10:35:16;;;;;;;;;18.75;17.50;;;;;25.21;48.25;101140.31;5073216;27;45310;-49
2021/07/02 10:37:46;;;;;;;;;16.50;16.50;;;;;25.32;48.29;101136.78;5076152;27;48179;-49
2021/07/02 10:40:31;;;;;;;;;15.00;15.00;;;;;25.43;47.23;101136.81;5068729;27;45580;-48
2021/07/02 10:43:08;;;;;;;;;18.50;17.25;;;;;25.51;46.93;101137.06;5073982;27;45700;-56
2021/07/02 10:45:34;;;;;;;;;16.50;16.50;;;;;25.59;46.21;101143.78;5065754;27;45465;-48
2021/07/02 10:48:00;;;;;;;;;19.00;16.00;;;;;25.64;46.64;101144.28;5086044;27;47517;-50
2021/07/02 10:50:43;;;;;;;;;16.75;15.00;;;;;25.70;46.37;101138.41;5082664;27;45569;-48
2021/07/02 10:53:29;;;;;;;;;15.25;15.25;;;;;25.71;46.05;101145.56;5091366;27;45371;-48
2021/07/02 10:55:56;;;;;;;;;17.25;17.00;;;;;25.70;45.86;101141.13;5063039;27;45502;-48
2021/07/02 10:58:22;;;;;;;;;21.00;21.00;;;;;25.72;46.25;101141.88;5072168;27;48568;-50
2021/07/02 11:01:08;;;;;;;;;19.75;19.75;;;;;25.78;46.31;101138.66;5077716;27;45296;-49
2021/07/02 11:03:34;;;;;;;;;18.25;17.50;;;;;25.83;46.47;101132.88;5066500;27;45304;-48
2021/07/02 11:06:36;;;;;;;;;16.50;16.25;;;;;25.91;46.16;101135.81;5086317;27;45301;-58
2021/07/02 11:09:02;;;;;;;;;19.00;18.00;;;;;25.97;45.93;101128.06;5089956;27;47608;-58
2021/07/02 11:12:05;;;;;;;;;20.00;18.50;;;;;26.00;45.81;101127.81;5076087;27;45548;-58